createdAt,value
2022-08-12T00:02:25.396Z,18.82
2022-08-12T00:07:47.048Z,18.79
2022-08-12T00:13:08.880Z,18.75
2022-08-12T00:18:30.452Z,18.77
2022-08-12T00:23:51.968Z,18.79
2022-08-12T00:29:14.109Z,18.82
2022-08-12T00:34:36.087Z,18.85
2022-08-12T00:40:00.194Z,18.88
2022-08-12T00:45:03.837Z,18.87
2022-08-12T00:50:12.466Z,18.87
2022-08-12T00:55:17.250Z,18.86
2022-08-12T01:00:24.372Z,18.79
2022-08-12T01:05:46.018Z,18.69
2022-08-12T01:11:08.970Z,18.60
2022-08-12T01:16:12.237Z,18.52
2022-08-12T01:21:27.774Z,18.40
2022-08-12T01:26:34.999Z,18.37
2022-08-12T01:31:39.539Z,18.31
2022-08-12T01:36:51.280Z,18.23
2022-08-12T01:41:59.263Z,18.16
2022-08-12T01:47:24.089Z,18.08
2022-08-12T01:52:37.193Z,17.95
2022-08-12T01:57:58.947Z,17.85
2022-08-12T02:03:52.770Z,17.79
2022-08-12T02:09:19.751Z,17.69
2022-08-12T02:14:34.585Z,17.60
2022-08-12T02:20:22.822Z,17.53
2022-08-12T02:25:41.756Z,17.51
2022-08-12T02:30:44.637Z,17.47
2022-08-12T02:35:48.161Z,17.41
2022-08-12T02:40:56.174Z,17.34
2022-08-12T02:46:15.885Z,17.29
2022-08-12T02:51:24.623Z,17.22
2022-08-12T02:56:28.891Z,17.10
2022-08-12T03:01:34.959Z,17.06
2022-08-12T03:06:51.323Z,17.00
2022-08-12T03:12:06.331Z,16.95
2022-08-12T03:17:29.527Z,16.91
2022-08-12T03:22:38.830Z,16.88
2022-08-12T03:27:55.979Z,16.81
2022-08-12T03:33:02.792Z,16.75
2022-08-12T03:38:11.745Z,16.69
2022-08-12T03:43:50.767Z,16.56
2022-08-12T03:49:12.570Z,16.49
2022-08-12T03:54:34.340Z,16.42
2022-08-12T03:59:55.679Z,16.37
2022-08-12T04:04:58.786Z,16.38
2022-08-12T04:10:02.532Z,16.42
2022-08-12T04:15:06.708Z,16.52
2022-08-12T04:20:13.544Z,16.58
2022-08-12T04:25:16.476Z,16.65
2022-08-12T04:30:33.398Z,16.73
2022-08-12T04:35:37.294Z,16.76
2022-08-12T04:40:41.163Z,16.87
2022-08-12T04:45:44.135Z,16.96
2022-08-12T04:50:47.064Z,17.04
2022-08-12T04:55:52.276Z,17.13
2022-08-12T05:00:55.248Z,17.24
2022-08-12T05:05:59.200Z,17.35
2022-08-12T05:11:02.161Z,17.51
2022-08-12T05:16:10.555Z,17.68
2022-08-12T05:21:16.652Z,17.84
2022-08-12T05:26:20.422Z,18.11
2022-08-12T05:31:45.536Z,18.40
2022-08-12T05:36:48.495Z,18.67
2022-08-12T05:41:51.495Z,18.85
2022-08-12T05:46:54.436Z,19.03
2022-08-12T05:51:58.117Z,19.25
2022-08-12T05:57:01.001Z,19.50
2022-08-12T06:02:10.006Z,19.77
2022-08-12T06:08:00.353Z,19.99
2022-08-12T06:12:39.301Z,20.17
2022-08-12T06:17:42.394Z,20.39
2022-08-12T06:22:50.953Z,20.56
2022-08-12T06:28:06.177Z,20.65
2022-08-12T06:33:23.080Z,20.76
2022-08-12T06:38:31.391Z,20.96
2022-08-12T06:44:04.637Z,21.18
2022-08-12T06:49:07.039Z,21.35
2022-08-12T06:54:11.575Z,21.51
2022-08-12T06:59:15.798Z,21.63
2022-08-12T07:04:37.292Z,21.77
2022-08-12T07:10:06.652Z,21.98
2022-08-12T07:15:06.736Z,22.24
2022-08-12T07:20:29.650Z,22.50
2022-08-12T07:25:44.093Z,22.69
2022-08-12T07:30:50.381Z,22.88
2022-08-12T07:35:54.048Z,23.08
2022-08-12T07:41:03.609Z,23.26
2022-08-12T07:46:20.465Z,23.45
2022-08-12T07:51:29.981Z,23.60
2022-08-12T07:56:42.559Z,23.72
2022-08-12T08:01:45.961Z,23.83
2022-08-12T08:06:52.964Z,24.00
2022-08-12T08:12:18.697Z,24.09
2022-08-12T08:17:23.615Z,24.14
2022-08-12T08:22:42.070Z,24.24
2022-08-12T08:27:54.828Z,24.35
2022-08-12T08:38:32.097Z,24.74
2022-08-12T08:43:44.038Z,24.92
2022-08-12T08:48:47.645Z,25.02
2022-08-12T08:53:52.814Z,25.05
2022-08-12T08:58:57.787Z,25.13
2022-08-12T09:09:23.865Z,25.51
2022-08-12T09:14:29.372Z,25.60
2022-08-12T09:19:33.357Z,25.67
2022-08-12T09:24:36.773Z,25.79
2022-08-12T09:30:10.508Z,25.89
2022-08-12T09:35:03.960Z,26.09
2022-08-12T09:41:01.710Z,26.33
2022-08-12T09:46:19.569Z,26.56
2022-08-12T09:50:58.558Z,26.81
2022-08-12T09:57:00.873Z,26.85
2022-08-12T10:01:34.465Z,27.06
2022-08-12T10:06:54.800Z,27.19
2022-08-12T10:12:31.668Z,27.30
2022-08-12T10:17:36.049Z,27.39
2022-08-12T10:23:00.378Z,27.50
2022-08-12T10:28:25.252Z,27.56
2022-08-12T10:33:31.923Z,27.44
2022-08-12T10:38:41.080Z,27.50
2022-08-12T10:43:55.097Z,27.69
2022-08-12T10:49:06.277Z,27.77
2022-08-12T10:54:28.602Z,27.99
2022-08-12T11:00:29.262Z,27.65
2022-08-12T11:04:59.469Z,27.61
2022-08-12T11:10:26.535Z,27.86
2022-08-12T11:16:04.066Z,27.91
2022-08-12T11:20:54.369Z,27.70
2022-08-12T11:26:05.628Z,27.51
2022-08-12T11:31:13.931Z,27.43
2022-08-12T11:36:22.040Z,27.31
2022-08-12T11:41:31.276Z,27.07
2022-08-12T11:46:37.309Z,26.91
2022-08-12T11:51:40.292Z,27.06
2022-08-12T11:56:59.539Z,27.26
2022-08-12T12:02:04.911Z,27.34
2022-08-12T12:07:11.147Z,27.44
2022-08-12T12:12:14.964Z,27.54
2022-08-12T12:17:18.339Z,27.47
2022-08-12T12:22:23.108Z,27.76
2022-08-12T12:27:39.249Z,28.30
2022-08-12T12:32:53.312Z,28.61
2022-08-12T12:38:05.256Z,28.79
2022-08-12T12:43:15.844Z,29.26
2022-08-12T12:48:21.139Z,29.51
2022-08-12T12:54:06.518Z,29.43
2022-08-12T12:58:51.826Z,29.54
2022-08-12T13:04:02.512Z,30.07
2022-08-12T13:09:08.181Z,30.24
2022-08-12T13:14:28.816Z,30.22
2022-08-12T13:19:46.812Z,30.13
2022-08-12T13:24:56.866Z,29.93
2022-08-12T13:30:03.901Z,29.86
2022-08-12T13:35:20.188Z,29.87
2022-08-12T13:40:33.929Z,29.69
2022-08-12T13:45:36.973Z,29.72
2022-08-12T13:50:43.560Z,29.79
2022-08-12T13:55:49.890Z,29.56
2022-08-12T14:01:05.931Z,29.46
2022-08-12T14:06:09.791Z,29.64
2022-08-12T14:11:25.375Z,29.91
2022-08-12T14:16:47.187Z,30.04
2022-08-12T14:21:59.655Z,30.22
2022-08-12T14:27:09.157Z,30.20
2022-08-12T14:32:16.364Z,30.33
2022-08-12T14:37:56.443Z,30.32
2022-08-12T14:42:46.787Z,30.71
2022-08-12T14:47:53.734Z,30.84
2022-08-12T14:58:27.110Z,30.82
2022-08-12T15:03:52.989Z,30.78
2022-08-12T15:08:54.888Z,30.51
2022-08-12T15:14:00.259Z,30.60
2022-08-12T15:19:07.109Z,31.02
2022-08-12T15:24:26.453Z,31.12
2022-08-12T15:29:29.610Z,31.02
2022-08-12T15:34:33.836Z,30.68
2022-08-12T15:39:36.793Z,30.26
2022-08-12T15:44:42.642Z,30.32
2022-08-12T15:49:59.507Z,30.33
2022-08-12T15:55:06.409Z,30.19
2022-08-12T16:00:29.051Z,30.12
2022-08-12T16:06:11.749Z,29.87
2022-08-12T16:11:15.656Z,29.79
2022-08-12T16:16:23.459Z,29.84
2022-08-12T16:21:52.747Z,29.74
2022-08-12T16:26:54.278Z,29.45
2022-08-12T16:31:59.681Z,29.31
2022-08-12T16:37:13.582Z,28.94
2022-08-12T16:42:21.206Z,28.76
2022-08-12T16:47:27.289Z,28.51
2022-08-12T16:52:30.390Z,28.32
2022-08-12T16:57:35.195Z,28.11
2022-08-12T17:02:40.572Z,27.92
2022-08-12T17:07:47.290Z,27.75
2022-08-12T17:12:55.030Z,27.58
2022-08-12T17:18:15.243Z,27.39
2022-08-12T17:23:23.368Z,27.20
2022-08-12T17:28:28.047Z,26.95
2022-08-12T17:33:34.584Z,26.73
2022-08-12T17:38:38.611Z,26.48
2022-08-12T17:43:52.069Z,26.28
2022-08-12T17:49:06.875Z,26.11
2022-08-12T17:54:27.001Z,25.88
2022-08-12T17:59:48.230Z,25.74
2022-08-12T18:05:04.512Z,25.55
2022-08-12T18:10:10.155Z,25.38
2022-08-12T18:15:26.497Z,25.21
2022-08-12T18:20:44.917Z,25.03
2022-08-12T18:26:13.920Z,24.80
2022-08-12T18:31:23.761Z,24.59
2022-08-12T18:36:29.488Z,24.39
2022-08-12T18:41:35.875Z,24.23
2022-08-12T18:46:55.765Z,24.15
2022-08-12T18:52:04.686Z,24.06
2022-08-12T18:57:19.690Z,24.00
2022-08-12T19:02:40.056Z,23.92
2022-08-12T19:08:00.234Z,23.83
2022-08-12T19:13:25.270Z,23.74
2022-08-12T19:18:38.472Z,23.66
2022-08-12T19:23:43.648Z,23.55
2022-08-12T19:28:49.578Z,23.40
2022-08-12T19:34:23.859Z,23.28
2022-08-12T19:39:25.164Z,23.14
2022-08-12T19:44:37.943Z,23.03
2022-08-12T19:49:54.098Z,22.92
2022-08-12T19:54:58.354Z,22.84
2022-08-12T20:00:06.417Z,22.77
2022-08-12T20:06:03.429Z,22.64
2022-08-12T20:10:35.600Z,22.47
2022-08-12T20:15:45.025Z,22.31
2022-08-12T20:20:49.203Z,22.16
2022-08-12T20:26:01.874Z,22.03
2022-08-12T20:31:11.943Z,21.94
2022-08-12T20:36:41.467Z,21.87
2022-08-12T20:41:42.283Z,21.70
2022-08-12T20:46:45.470Z,21.60
2022-08-12T20:51:54.865Z,21.51
2022-08-12T20:57:00.999Z,21.38
2022-08-12T21:02:05.908Z,21.26
2022-08-12T21:07:10.451Z,21.10
2022-08-12T21:12:28.159Z,20.99
2022-08-12T21:18:08.933Z,20.88
2022-08-12T21:23:00.469Z,20.69
2022-08-12T21:28:06.808Z,20.56
2022-08-12T21:33:14.762Z,20.45
2022-08-12T21:38:19.707Z,20.39
2022-08-12T21:43:26.782Z,20.27
2022-08-12T21:48:41.778Z,20.26
2022-08-12T21:54:06.892Z,20.27
2022-08-12T21:59:15.455Z,20.20
2022-08-12T22:04:37.031Z,20.13
2022-08-12T22:09:42.862Z,20.03
2022-08-12T22:14:49.792Z,19.93
2022-08-12T22:19:52.753Z,19.80
2022-08-12T22:24:58.500Z,19.69
2022-08-12T22:30:20.549Z,19.55
2022-08-12T22:35:55.747Z,19.39
2022-08-12T22:41:33.250Z,19.19
2022-08-12T22:46:54.962Z,19.09
2022-08-12T22:52:01.356Z,19.08
2022-08-12T22:57:11.984Z,19.12
2022-08-12T23:02:17.467Z,19.23
2022-08-12T23:07:36.058Z,19.32
2022-08-12T23:13:14.269Z,19.49
2022-08-12T23:18:18.524Z,19.63
2022-08-12T23:23:21.353Z,19.71
2022-08-12T23:28:44.141Z,19.78
2022-08-12T23:34:01.842Z,19.86
2022-08-12T23:40:13.703Z,19.94
2022-08-12T23:44:38.332Z,20.06
2022-08-12T23:49:56.998Z,20.20
2022-08-12T23:55:24.709Z,20.35
